Torreon, Mexico

3:37 PM EST on February 09, 2016 (GMT -0500)
Torreon International | | Change Station
CLOSE
Current Station
Airport
Location: Torreon,
Elevation: 3688 ft
Nearby Weather Stations

Elev 3688 ft 25.53 °N, 103.45 °W | Updated 55 minutes ago

Mostly Cloudy
Mostly Cloudy
64 °F
Feels Like 64 °F
N
0
Wind Variable Wind from North

Today
High -- | Low -- °F
--% Chance of Precip.
Yesterday
High -- | Low -- °F
Precip. -- in
Pressure 30.31 in
Visibility 10.0 miles
Clouds Scattered Clouds 10000 ft
Mostly Cloudy 20000 ft
Dew Point 27 °F
Humidity 24%
Rainfall 0.00 in
Snow Depth Not available.
8:33 AM 7:43 PM
New Moon, 2% visible
METAR MMTC 091942Z 00000KT 10SM SCT100 BKN200 18/M03 A3031 RMK 8/072 HZY
Pressure 30.31 in
Visibility 10.0 miles
Clouds Scattered Clouds 10000 ft
Mostly Cloudy 20000 ft
Dew Point 27 °F
Humidity 24%
Rainfall 0.00 in
Snow Depth Not available.
8:33 AM 7:43 PM
New Moon, 2% visible
METAR MMTC 091942Z 00000KT 10SM SCT100 BKN200 18/M03 A3031 RMK 8/072 HZY

10-Day Weather Forecast

No radar image for this location.
×

Almanac

Astronomy

Feb. 09, 2016 Rise Set
Actual Time
Civil Twilight
Nautical Twilight
Astronomical Twilight
Moon
Length of Visible Light
Length of Day
Tomorrow will be .
, % of the Moon is Illuminated

Today's Extremes

Country Highs Country Lows

Community

WunderPhotos

Upload Photos

1,891,679 photos uploaded!

WunderBlog® & News

Nearby

Air Quality

  Air Quality AQ Index Pollutant
Not available.

Snow Depth

Station Depth Elevation

Earthquake Activity

City Distance Mag. Time & Date
Minimum magnitude displayed is 2.5.

Coastal Water Temperatures

Place Temperature

Stations

Nearby Weather Stations

Station Location Temp. Windchill Dew Point Humidity Wind Precip. Elev Updated Type